sensor_id;sensor_type;location;lat;lon;timestamp;temperature;humidity
36384;DHT22;22418;51.210;6.976;2023-06-04T00:01:42;14.30;83.90
36384;DHT22;22418;51.210;6.976;2023-06-04T00:04:15;14.30;83.90
36384;DHT22;22418;51.210;6.976;2023-06-04T00:06:46;14.30;83.90
36384;DHT22;22418;51.210;6.976;2023-06-04T00:09:17;14.30;84.00
36384;DHT22;22418;51.210;6.976;2023-06-04T00:11:47;14.30;83.90
36384;DHT22;22418;51.210;6.976;2023-06-04T00:14:18;14.20;84.20
36384;DHT22;22418;51.210;6.976;2023-06-04T00:16:49;14.20;84.30
36384;DHT22;22418;51.210;6.976;2023-06-04T00:19:19;14.20;84.50
36384;DHT22;22418;51.210;6.976;2023-06-04T00:21:50;14.10;84.40
36384;DHT22;22418;51.210;6.976;2023-06-04T00:24:20;14.20;84.50
36384;DHT22;22418;51.210;6.976;2023-06-04T00:26:51;14.20;84.30
36384;DHT22;22418;51.210;6.976;2023-06-04T00:29:21;14.40;84.30
36384;DHT22;22418;51.210;6.976;2023-06-04T00:31:52;14.30;84.40
36384;DHT22;22418;51.210;6.976;2023-06-04T00:34:23;14.20;84.60
36384;DHT22;22418;51.210;6.976;2023-06-04T00:36:53;14.20;84.80
36384;DHT22;22418;51.210;6.976;2023-06-04T00:39:24;14.20;85.10
36384;DHT22;22418;51.210;6.976;2023-06-04T00:41:55;14.00;85.20
36384;DHT22;22418;51.210;6.976;2023-06-04T00:44:25;14.00;85.50
36384;DHT22;22418;51.210;6.976;2023-06-04T00:46:57;14.00;85.60
36384;DHT22;22418;51.210;6.976;2023-06-04T00:49:27;13.90;86.10
36384;DHT22;22418;51.210;6.976;2023-06-04T00:51:58;14.00;86.10
36384;DHT22;22418;51.210;6.976;2023-06-04T00:54:28;13.80;86.30
36384;DHT22;22418;51.210;6.976;2023-06-04T00:56:59;13.80;86.50
36384;DHT22;22418;51.210;6.976;2023-06-04T00:59:31;13.80;86.30
36384;DHT22;22418;51.210;6.976;2023-06-04T01:02:12;13.70;86.50
36384;DHT22;22418;51.210;6.976;2023-06-04T01:07:30;13.60;86.70
36384;DHT22;22418;51.210;6.976;2023-06-04T01:10:01;13.60;86.60
36384;DHT22;22418;51.210;6.976;2023-06-04T01:12:31;13.60;86.90
36384;DHT22;22418;51.210;6.976;2023-06-04T01:15:02;13.70;87.20
36384;DHT22;22418;51.210;6.976;2023-06-04T01:17:39;13.60;87.10
36384;DHT22;22418;51.210;6.976;2023-06-04T01:26:05;13.40;87.50
36384;DHT22;22418;51.210;6.976;2023-06-04T01:28:36;13.50;87.60
36384;DHT22;22418;51.210;6.976;2023-06-04T01:31:07;13.40;88.00
36384;DHT22;22418;51.210;6.976;2023-06-04T01:33:38;13.40;88.00
36384;DHT22;22418;51.210;6.976;2023-06-04T01:36:09;13.40;88.10
36384;DHT22;22418;51.210;6.976;2023-06-04T01:38:42;13.40;88.30
36384;DHT22;22418;51.210;6.976;2023-06-04T01:41:13;13.30;88.20
36384;DHT22;22418;51.210;6.976;2023-06-04T01:43:43;13.40;88.40
36384;DHT22;22418;51.210;6.976;2023-06-04T01:46:14;13.30;88.40
36384;DHT22;22418;51.210;6.976;2023-06-04T01:48:45;13.40;88.40
36384;DHT22;22418;51.210;6.976;2023-06-04T01:51:19;13.30;88.70
36384;DHT22;22418;51.210;6.976;2023-06-04T01:53:50;13.30;88.90
36384;DHT22;22418;51.210;6.976;2023-06-04T01:56:21;13.30;88.70
36384;DHT22;22418;51.210;6.976;2023-06-04T01:58:51;13.30;89.00
36384;DHT22;22418;51.210;6.976;2023-06-04T02:01:22;13.30;88.80
36384;DHT22;22418;51.210;6.976;2023-06-04T02:03:52;13.30;89.10
36384;DHT22;22418;51.210;6.976;2023-06-04T02:06:23;13.30;88.90
36384;DHT22;22418;51.210;6.976;2023-06-04T02:08:55;13.30;89.00
36384;DHT22;22418;51.210;6.976;2023-06-04T02:11:26;13.20;89.10
36384;DHT22;22418;51.210;6.976;2023-06-04T02:13:56;13.20;89.10
36384;DHT22;22418;51.210;6.976;2023-06-04T02:16:27;13.10;89.70
36384;DHT22;22418;51.210;6.976;2023-06-04T02:18:58;13.10;89.90
36384;DHT22;22418;51.210;6.976;2023-06-04T02:21:29;13.10;89.70
36384;DHT22;22418;51.210;6.976;2023-06-04T02:24:00;13.10;90.10
36384;DHT22;22418;51.210;6.976;2023-06-04T02:26:30;13.00;90.10
36384;DHT22;22418;51.210;6.976;2023-06-04T02:29:01;12.90;90.30
36384;DHT22;22418;51.210;6.976;2023-06-04T02:31:32;12.90;90.30
36384;DHT22;22418;51.210;6.976;2023-06-04T02:34:03;12.90;90.50
36384;DHT22;22418;51.210;6.976;2023-06-04T02:36:34;12.80;90.40
36384;DHT22;22418;51.210;6.976;2023-06-04T02:39:04;12.80;90.40
36384;DHT22;22418;51.210;6.976;2023-06-04T02:41:35;12.80;90.40
36384;DHT22;22418;51.210;6.976;2023-06-04T02:44:06;12.80;90.40
36384;DHT22;22418;51.210;6.976;2023-06-04T02:46:37;12.90;90.50
36384;DHT22;22418;51.210;6.976;2023-06-04T02:49:09;12.80;90.60
36384;DHT22;22418;51.210;6.976;2023-06-04T02:51:43;12.90;90.50
36384;DHT22;22418;51.210;6.976;2023-06-04T02:54:14;12.70;90.80
36384;DHT22;22418;51.210;6.976;2023-06-04T02:56:45;12.70;90.90
36384;DHT22;22418;51.210;6.976;2023-06-04T02:59:16;12.70;91.20
36384;DHT22;22418;51.210;6.976;2023-06-04T03:01:47;12.80;91.00
36384;DHT22;22418;51.210;6.976;2023-06-04T03:04:18;12.70;91.20
36384;DHT22;22418;51.210;6.976;2023-06-04T03:06:48;12.80;91.20
36384;DHT22;22418;51.210;6.976;2023-06-04T03:09:28;12.80;91.10
36384;DHT22;22418;51.210;6.976;2023-06-04T03:12:00;12.80;91.10
36384;DHT22;22418;51.210;6.976;2023-06-04T03:14:33;12.80;91.20
36384;DHT22;22418;51.210;6.976;2023-06-04T03:17:04;12.70;91.30
36384;DHT22;22418;51.210;6.976;2023-06-04T03:19:41;12.70;91.40
36384;DHT22;22418;51.210;6.976;2023-06-04T03:22:12;12.70;91.30
36384;DHT22;22418;51.210;6.976;2023-06-04T03:24:42;12.60;91.50
36384;DHT22;22418;51.210;6.976;2023-06-04T03:27:13;12.60;91.60
36384;DHT22;22418;51.210;6.976;2023-06-04T03:29:44;12.70;91.60
36384;DHT22;22418;51.210;6.976;2023-06-04T03:32:16;12.70;91.80
36384;DHT22;22418;51.210;6.976;2023-06-04T03:34:47;12.70;91.80
36384;DHT22;22418;51.210;6.976;2023-06-04T03:37:17;12.60;91.90
36384;DHT22;22418;51.210;6.976;2023-06-04T03:39:48;12.60;92.00
36384;DHT22;22418;51.210;6.976;2023-06-04T03:42:19;12.60;92.00
36384;DHT22;22418;51.210;6.976;2023-06-04T03:44:49;12.60;92.00
36384;DHT22;22418;51.210;6.976;2023-06-04T03:47:20;12.60;92.10
36384;DHT22;22418;51.210;6.976;2023-06-04T03:49:50;12.60;92.10
36384;DHT22;22418;51.210;6.976;2023-06-04T03:52:21;12.60;92.10
36384;DHT22;22418;51.210;6.976;2023-06-04T03:54:51;12.70;92.20
36384;DHT22;22418;51.210;6.976;2023-06-04T03:57:22;12.50;92.20
36384;DHT22;22418;51.210;6.976;2023-06-04T03:59:52;12.60;92.10
36384;DHT22;22418;51.210;6.976;2023-06-04T04:02:23;12.60;92.20
36384;DHT22;22418;51.210;6.976;2023-06-04T04:04:54;12.60;92.20
36384;DHT22;22418;51.210;6.976;2023-06-04T04:07:24;12.70;92.10
36384;DHT22;22418;51.210;6.976;2023-06-04T04:09:55;12.70;92.20
36384;DHT22;22418;51.210;6.976;2023-06-04T04:12:26;12.70;92.20
36384;DHT22;22418;51.210;6.976;2023-06-04T04:14:56;12.80;92.10
36384;DHT22;22418;51.210;6.976;2023-06-04T04:17:27;12.80;92.20
36384;DHT22;22418;51.210;6.976;2023-06-04T04:19:57;12.90;91.90
36384;DHT22;22418;51.210;6.976;2023-06-04T04:22:28;13.10;92.10
36384;DHT22;22418;51.210;6.976;2023-06-04T04:24:58;13.10;91.80
36384;DHT22;22418;51.210;6.976;2023-06-04T04:27:29;13.20;91.70
36384;DHT22;22418;51.210;6.976;2023-06-04T04:30:00;13.40;91.40
36384;DHT22;22418;51.210;6.976;2023-06-04T04:32:32;13.50;91.50
36384;DHT22;22418;51.210;6.976;2023-06-04T04:35:03;13.60;91.30
36384;DHT22;22418;51.210;6.976;2023-06-04T04:37:34;14.00;90.90
36384;DHT22;22418;51.210;6.976;2023-06-04T04:40:09;14.00;90.70
36384;DHT22;22418;51.210;6.976;2023-06-04T04:42:42;14.20;90.40
36384;DHT22;22418;51.210;6.976;2023-06-04T04:45:13;14.40;90.40
36384;DHT22;22418;51.210;6.976;2023-06-04T04:47:43;14.70;89.90
36384;DHT22;22418;51.210;6.976;2023-06-04T04:50:14;15.10;88.70
36384;DHT22;22418;51.210;6.976;2023-06-04T04:52:44;15.30;87.70
36384;DHT22;22418;51.210;6.976;2023-06-04T04:55:15;15.40;87.40
36384;DHT22;22418;51.210;6.976;2023-06-04T04:57:46;15.60;86.90
36384;DHT22;22418;51.210;6.976;2023-06-04T05:00:16;15.70;86.70
36384;DHT22;22418;51.210;6.976;2023-06-04T05:02:47;15.50;87.30
36384;DHT22;22418;51.210;6.976;2023-06-04T05:05:18;15.70;87.00
36384;DHT22;22418;51.210;6.976;2023-06-04T05:07:48;15.90;86.10
36384;DHT22;22418;51.210;6.976;2023-06-04T05:10:19;15.80;86.30
36384;DHT22;22418;51.210;6.976;2023-06-04T05:12:53;16.10;86.50
36384;DHT22;22418;51.210;6.976;2023-06-04T05:15:25;16.80;84.60
36384;DHT22;22418;51.210;6.976;2023-06-04T05:17:56;17.60;83.00
36384;DHT22;22418;51.210;6.976;2023-06-04T05:20:27;18.30;81.00
36384;DHT22;22418;51.210;6.976;2023-06-04T05:22:58;18.40;80.90
36384;DHT22;22418;51.210;6.976;2023-06-04T05:25:30;18.10;81.00
36384;DHT22;22418;51.210;6.976;2023-06-04T05:28:01;18.00;81.90
36384;DHT22;22418;51.210;6.976;2023-06-04T05:30:32;18.00;81.70
36384;DHT22;22418;51.210;6.976;2023-06-04T05:33:04;18.30;81.20
36384;DHT22;22418;51.210;6.976;2023-06-04T05:35:34;18.80;80.30
36384;DHT22;22418;51.210;6.976;2023-06-04T05:38:05;19.20;79.60
36384;DHT22;22418;51.210;6.976;2023-06-04T05:40:35;18.60;80.50
36384;DHT22;22418;51.210;6.976;2023-06-04T05:43:06;18.40;81.40
36384;DHT22;22418;51.210;6.976;2023-06-04T05:45:38;18.70;80.20
36384;DHT22;22418;51.210;6.976;2023-06-04T05:48:08;18.90;79.60
36384;DHT22;22418;51.210;6.976;2023-06-04T05:50:39;19.20;78.50
36384;DHT22;22418;51.210;6.976;2023-06-04T05:53:09;19.80;76.40
36384;DHT22;22418;51.210;6.976;2023-06-04T05:55:40;19.90;76.10
36384;DHT22;22418;51.210;6.976;2023-06-04T05:58:10;20.50;74.90
36384;DHT22;22418;51.210;6.976;2023-06-04T06:00:41;21.20;74.70
36384;DHT22;22418;51.210;6.976;2023-06-04T06:03:11;22.10;72.80
36384;DHT22;22418;51.210;6.976;2023-06-04T06:05:43;22.90;72.10
36384;DHT22;22418;51.210;6.976;2023-06-04T06:08:14;24.00;68.90
36384;DHT22;22418;51.210;6.976;2023-06-04T06:10:45;24.80;68.00
36384;DHT22;22418;51.210;6.976;2023-06-04T06:13:15;25.40;66.60
36384;DHT22;22418;51.210;6.976;2023-06-04T06:15:46;25.20;66.90
36384;DHT22;22418;51.210;6.976;2023-06-04T06:18:18;26.60;65.10
36384;DHT22;22418;51.210;6.976;2023-06-04T06:20:49;27.20;63.80
36384;DHT22;22418;51.210;6.976;2023-06-04T06:23:19;26.50;64.00
36384;DHT22;22418;51.210;6.976;2023-06-04T06:25:52;27.40;63.40
36384;DHT22;22418;51.210;6.976;2023-06-04T06:28:22;28.50;61.90
36384;DHT22;22418;51.210;6.976;2023-06-04T06:30:53;29.40;60.50
36384;DHT22;22418;51.210;6.976;2023-06-04T06:33:23;27.70;59.00
36384;DHT22;22418;51.210;6.976;2023-06-04T06:35:54;27.40;60.40
36384;DHT22;22418;51.210;6.976;2023-06-04T06:38:24;26.20;61.10
36384;DHT22;22418;51.210;6.976;2023-06-04T06:40:55;27.50;61.50
36384;DHT22;22418;51.210;6.976;2023-06-04T06:43:26;29.80;58.80
36384;DHT22;22418;51.210;6.976;2023-06-04T06:45:56;28.60;59.00
36384;DHT22;22418;51.210;6.976;2023-06-04T06:48:27;28.90;58.10
36384;DHT22;22418;51.210;6.976;2023-06-04T06:50:57;28.50;58.00
36384;DHT22;22418;51.210;6.976;2023-06-04T06:53:28;27.80;58.50
36384;DHT22;22418;51.210;6.976;2023-06-04T06:55:58;27.30;59.20
36384;DHT22;22418;51.210;6.976;2023-06-04T06:58:29;27.30;59.00
36384;DHT22;22418;51.210;6.976;2023-06-04T07:01:00;28.50;58.40
36384;DHT22;22418;51.210;6.976;2023-06-04T07:03:31;28.40;58.30
36384;DHT22;22418;51.210;6.976;2023-06-04T07:06:02;27.40;58.50
36384;DHT22;22418;51.210;6.976;2023-06-04T07:08:33;26.60;59.30
36384;DHT22;22418;51.210;6.976;2023-06-04T07:11:04;25.70;61.10
36384;DHT22;22418;51.210;6.976;2023-06-04T07:13:34;25.70;62.00
36384;DHT22;22418;51.210;6.976;2023-06-04T07:16:05;25.20;62.90
36384;DHT22;22418;51.210;6.976;2023-06-04T07:18:36;25.60;62.90
36384;DHT22;22418;51.210;6.976;2023-06-04T07:21:07;26.20;63.60
36384;DHT22;22418;51.210;6.976;2023-06-04T07:23:37;26.40;62.20
36384;DHT22;22418;51.210;6.976;2023-06-04T07:26:08;26.10;62.30
36384;DHT22;22418;51.210;6.976;2023-06-04T07:28:38;25.10;61.30
36384;DHT22;22418;51.210;6.976;2023-06-04T07:31:09;24.70;62.00
36384;DHT22;22418;51.210;6.976;2023-06-04T07:33:40;24.20;62.50
36384;DHT22;22418;51.210;6.976;2023-06-04T07:36:13;23.90;64.00
36384;DHT22;22418;51.210;6.976;2023-06-04T07:38:44;24.60;63.60
36384;DHT22;22418;51.210;6.976;2023-06-04T07:41:15;25.20;63.80
36384;DHT22;22418;51.210;6.976;2023-06-04T07:43:45;25.80;62.60
36384;DHT22;22418;51.210;6.976;2023-06-04T07:46:16;25.50;61.10
36384;DHT22;22418;51.210;6.976;2023-06-04T07:48:48;24.70;62.70
36384;DHT22;22418;51.210;6.976;2023-06-04T07:51:19;25.00;64.00
36384;DHT22;22418;51.210;6.976;2023-06-04T07:53:50;24.80;63.00
36384;DHT22;22418;51.210;6.976;2023-06-04T07:56:21;24.50;62.60
36384;DHT22;22418;51.210;6.976;2023-06-04T07:58:51;24.10;63.80
36384;DHT22;22418;51.210;6.976;2023-06-04T08:01:22;23.70;63.70
36384;DHT22;22418;51.210;6.976;2023-06-04T08:03:54;23.40;65.60
36384;DHT22;22418;51.210;6.976;2023-06-04T08:06:25;23.30;66.80
36384;DHT22;22418;51.210;6.976;2023-06-04T08:08:57;23.10;65.30
36384;DHT22;22418;51.210;6.976;2023-06-04T08:11:27;22.80;67.40
36384;DHT22;22418;51.210;6.976;2023-06-04T08:13:58;22.90;67.50
36384;DHT22;22418;51.210;6.976;2023-06-04T08:16:30;22.60;64.90
36384;DHT22;22418;51.210;6.976;2023-06-04T08:19:00;22.50;63.00
36384;DHT22;22418;51.210;6.976;2023-06-04T08:21:31;22.70;64.50
36384;DHT22;22418;51.210;6.976;2023-06-04T08:24:01;22.30;64.70
36384;DHT22;22418;51.210;6.976;2023-06-04T08:26:33;22.60;65.50
36384;DHT22;22418;51.210;6.976;2023-06-04T08:29:04;22.80;64.10
36384;DHT22;22418;51.210;6.976;2023-06-04T08:31:34;22.50;65.70
36384;DHT22;22418;51.210;6.976;2023-06-04T08:34:05;22.50;66.20
36384;DHT22;22418;51.210;6.976;2023-06-04T08:36:36;22.60;66.60
36384;DHT22;22418;51.210;6.976;2023-06-04T08:39:06;22.70;67.40
36384;DHT22;22418;51.210;6.976;2023-06-04T08:41:49;22.70;64.20
36384;DHT22;22418;51.210;6.976;2023-06-04T08:44:21;22.60;67.60
36384;DHT22;22418;51.210;6.976;2023-06-04T08:46:52;22.20;62.40
36384;DHT22;22418;51.210;6.976;2023-06-04T08:49:24;21.90;64.90
36384;DHT22;22418;51.210;6.976;2023-06-04T08:51:56;21.50;61.90
36384;DHT22;22418;51.210;6.976;2023-06-04T08:54:26;21.40;64.30
36384;DHT22;22418;51.210;6.976;2023-06-04T08:56:57;21.60;63.60
36384;DHT22;22418;51.210;6.976;2023-06-04T08:59:28;21.70;65.00
36384;DHT22;22418;51.210;6.976;2023-06-04T09:01:59;21.50;63.10
36384;DHT22;22418;51.210;6.976;2023-06-04T09:04:29;21.60;63.90
36384;DHT22;22418;51.210;6.976;2023-06-04T09:07:01;21.50;63.80
36384;DHT22;22418;51.210;6.976;2023-06-04T09:09:36;21.60;64.10
36384;DHT22;22418;51.210;6.976;2023-06-04T09:12:10;21.60;65.30
36384;DHT22;22418;51.210;6.976;2023-06-04T09:14:41;21.70;65.20
36384;DHT22;22418;51.210;6.976;2023-06-04T09:17:12;21.40;63.80
36384;DHT22;22418;51.210;6.976;2023-06-04T09:19:42;21.30;65.00
36384;DHT22;22418;51.210;6.976;2023-06-04T09:22:13;21.70;65.90
36384;DHT22;22418;51.210;6.976;2023-06-04T09:24:47;21.30;64.80
36384;DHT22;22418;51.210;6.976;2023-06-04T09:27:20;21.40;66.40
36384;DHT22;22418;51.210;6.976;2023-06-04T09:29:57;21.40;64.50
36384;DHT22;22418;51.210;6.976;2023-06-04T09:32:29;21.50;64.60
36384;DHT22;22418;51.210;6.976;2023-06-04T09:35:17;21.60;65.50
36384;DHT22;22418;51.210;6.976;2023-06-04T09:37:55;21.60;65.30
36384;DHT22;22418;51.210;6.976;2023-06-04T09:40:35;22.00;65.30
36384;DHT22;22418;51.210;6.976;2023-06-04T09:43:07;21.80;63.80
36384;DHT22;22418;51.210;6.976;2023-06-04T09:45:38;21.50;64.30
36384;DHT22;22418;51.210;6.976;2023-06-04T09:48:19;21.40;66.00
36384;DHT22;22418;51.210;6.976;2023-06-04T09:50:50;21.10;64.20
36384;DHT22;22418;51.210;6.976;2023-06-04T09:53:21;21.10;66.30
36384;DHT22;22418;51.210;6.976;2023-06-04T09:55:59;21.10;65.00
36384;DHT22;22418;51.210;6.976;2023-06-04T09:58:31;20.90;65.70
36384;DHT22;22418;51.210;6.976;2023-06-04T10:01:05;21.00;65.70
36384;DHT22;22418;51.210;6.976;2023-06-04T10:03:36;20.90;66.30
36384;DHT22;22418;51.210;6.976;2023-06-04T10:06:09;20.90;65.00
36384;DHT22;22418;51.210;6.976;2023-06-04T10:08:40;20.90;67.00
36384;DHT22;22418;51.210;6.976;2023-06-04T10:11:13;20.70;64.80
36384;DHT22;22418;51.210;6.976;2023-06-04T10:13:53;20.70;67.10
36384;DHT22;22418;51.210;6.976;2023-06-04T10:16:27;20.70;66.20
36384;DHT22;22418;51.210;6.976;2023-06-04T10:18:59;20.80;66.20
36384;DHT22;22418;51.210;6.976;2023-06-04T10:21:32;20.80;66.80
36384;DHT22;22418;51.210;6.976;2023-06-04T10:24:05;20.70;66.70
36384;DHT22;22418;51.210;6.976;2023-06-04T10:26:37;20.70;66.30
36384;DHT22;22418;51.210;6.976;2023-06-04T10:29:08;20.60;67.10
36384;DHT22;22418;51.210;6.976;2023-06-04T10:31:39;20.60;67.60
36384;DHT22;22418;51.210;6.976;2023-06-04T10:34:11;20.60;68.40
36384;DHT22;22418;51.210;6.976;2023-06-04T10:36:44;20.80;67.90
36384;DHT22;22418;51.210;6.976;2023-06-04T10:39:29;20.70;68.40
36384;DHT22;22418;51.210;6.976;2023-06-04T10:42:03;20.80;67.60
36384;DHT22;22418;51.210;6.976;2023-06-04T10:44:45;20.80;67.20
36384;DHT22;22418;51.210;6.976;2023-06-04T10:47:24;20.70;67.60
36384;DHT22;22418;51.210;6.976;2023-06-04T10:50:07;20.80;67.30
36384;DHT22;22418;51.210;6.976;2023-06-04T10:52:39;20.80;67.70
36384;DHT22;22418;51.210;6.976;2023-06-04T10:55:20;20.90;69.30
36384;DHT22;22418;51.210;6.976;2023-06-04T10:57:58;20.90;69.40
36384;DHT22;22418;51.210;6.976;2023-06-04T11:00:43;21.00;70.00
36384;DHT22;22418;51.210;6.976;2023-06-04T11:03:16;21.00;68.70
36384;DHT22;22418;51.210;6.976;2023-06-04T11:05:47;20.80;69.90
36384;DHT22;22418;51.210;6.976;2023-06-04T11:08:29;20.80;66.90
36384;DHT22;22418;51.210;6.976;2023-06-04T11:11:10;20.70;66.60
36384;DHT22;22418;51.210;6.976;2023-06-04T11:13:42;20.70;68.50
36384;DHT22;22418;51.210;6.976;2023-06-04T11:16:19;20.80;67.30
36384;DHT22;22418;51.210;6.976;2023-06-04T11:18:57;20.70;66.20
36384;DHT22;22418;51.210;6.976;2023-06-04T11:21:29;20.70;66.50
36384;DHT22;22418;51.210;6.976;2023-06-04T11:24:00;20.70;67.70
36384;DHT22;22418;51.210;6.976;2023-06-04T11:26:35;20.70;69.60
36384;DHT22;22418;51.210;6.976;2023-06-04T11:29:07;20.70;67.60
36384;DHT22;22418;51.210;6.976;2023-06-04T11:31:45;20.70;68.40
36384;DHT22;22418;51.210;6.976;2023-06-04T11:34:25;20.80;69.20
36384;DHT22;22418;51.210;6.976;2023-06-04T11:36:56;20.80;67.60
36384;DHT22;22418;51.210;6.976;2023-06-04T11:39:37;20.80;67.40
36384;DHT22;22418;51.210;6.976;2023-06-04T11:42:10;20.80;69.30
36384;DHT22;22418;51.210;6.976;2023-06-04T11:44:40;20.80;66.90
36384;DHT22;22418;51.210;6.976;2023-06-04T11:47:15;20.80;69.50
36384;DHT22;22418;51.210;6.976;2023-06-04T11:49:46;20.80;69.10
36384;DHT22;22418;51.210;6.976;2023-06-04T11:52:18;20.90;67.00
36384;DHT22;22418;51.210;6.976;2023-06-04T11:54:50;20.90;66.70
36384;DHT22;22418;51.210;6.976;2023-06-04T11:57:21;20.80;66.10
36384;DHT22;22418;51.210;6.976;2023-06-04T11:59:52;20.70;66.50
36384;DHT22;22418;51.210;6.976;2023-06-04T12:02:23;20.80;67.70
36384;DHT22;22418;51.210;6.976;2023-06-04T12:04:53;20.80;68.00
36384;DHT22;22418;51.210;6.976;2023-06-04T12:07:24;20.80;67.90
36384;DHT22;22418;51.210;6.976;2023-06-04T12:10:05;20.90;67.70
36384;DHT22;22418;51.210;6.976;2023-06-04T12:12:37;21.00;68.20
36384;DHT22;22418;51.210;6.976;2023-06-04T12:15:08;21.00;68.80
36384;DHT22;22418;51.210;6.976;2023-06-04T12:17:50;21.00;67.10
36384;DHT22;22418;51.210;6.976;2023-06-04T12:23:06;20.90;67.80
36384;DHT22;22418;51.210;6.976;2023-06-04T12:25:37;20.90;66.30
36384;DHT22;22418;51.210;6.976;2023-06-04T12:28:17;21.00;66.70
36384;DHT22;22418;51.210;6.976;2023-06-04T12:30:48;21.00;66.20
36384;DHT22;22418;51.210;6.976;2023-06-04T12:33:19;21.00;66.70
36384;DHT22;22418;51.210;6.976;2023-06-04T12:35:49;21.00;66.60
36384;DHT22;22418;51.210;6.976;2023-06-04T12:38:20;21.00;66.00
36384;DHT22;22418;51.210;6.976;2023-06-04T12:40:50;21.00;67.10
36384;DHT22;22418;51.210;6.976;2023-06-04T12:43:21;21.00;66.90
36384;DHT22;22418;51.210;6.976;2023-06-04T12:45:51;21.00;66.60
36384;DHT22;22418;51.210;6.976;2023-06-04T12:48:22;21.10;67.90
36384;DHT22;22418;51.210;6.976;2023-06-04T12:50:52;21.00;67.60
36384;DHT22;22418;51.210;6.976;2023-06-04T12:53:23;21.10;67.40
36384;DHT22;22418;51.210;6.976;2023-06-04T12:55:53;21.10;67.00
36384;DHT22;22418;51.210;6.976;2023-06-04T12:58:24;21.10;68.40
36384;DHT22;22418;51.210;6.976;2023-06-04T13:00:55;21.10;68.00
36384;DHT22;22418;51.210;6.976;2023-06-04T13:03:26;21.20;69.30
36384;DHT22;22418;51.210;6.976;2023-06-04T13:05:57;21.20;68.50
36384;DHT22;22418;51.210;6.976;2023-06-04T13:08:27;21.20;67.80
36384;DHT22;22418;51.210;6.976;2023-06-04T13:10:58;21.30;69.10
36384;DHT22;22418;51.210;6.976;2023-06-04T13:13:29;21.20;66.80
36384;DHT22;22418;51.210;6.976;2023-06-04T13:16:00;21.30;67.60
36384;DHT22;22418;51.210;6.976;2023-06-04T13:18:30;21.30;66.80
36384;DHT22;22418;51.210;6.976;2023-06-04T13:21:01;21.30;66.60
36384;DHT22;22418;51.210;6.976;2023-06-04T13:23:32;21.30;68.80
36384;DHT22;22418;51.210;6.976;2023-06-04T13:26:02;21.30;68.10
36384;DHT22;22418;51.210;6.976;2023-06-04T13:28:33;21.30;67.80
36384;DHT22;22418;51.210;6.976;2023-06-04T13:31:03;21.40;67.90
36384;DHT22;22418;51.210;6.976;2023-06-04T13:33:34;21.40;67.90
36384;DHT22;22418;51.210;6.976;2023-06-04T13:36:05;21.50;67.90
36384;DHT22;22418;51.210;6.976;2023-06-04T13:38:36;21.40;67.30
36384;DHT22;22418;51.210;6.976;2023-06-04T13:41:07;21.40;67.30
36384;DHT22;22418;51.210;6.976;2023-06-04T13:43:38;21.40;68.10
36384;DHT22;22418;51.210;6.976;2023-06-04T13:46:09;21.40;67.70
36384;DHT22;22418;51.210;6.976;2023-06-04T13:48:40;21.40;66.10
36384;DHT22;22418;51.210;6.976;2023-06-04T13:51:10;21.40;68.00
36384;DHT22;22418;51.210;6.976;2023-06-04T13:53:41;21.40;67.40
36384;DHT22;22418;51.210;6.976;2023-06-04T13:56:12;21.40;67.10
36384;DHT22;22418;51.210;6.976;2023-06-04T13:58:42;21.40;67.00
36384;DHT22;22418;51.210;6.976;2023-06-04T14:01:13;21.40;67.90
36384;DHT22;22418;51.210;6.976;2023-06-04T14:03:44;21.50;68.30
36384;DHT22;22418;51.210;6.976;2023-06-04T14:06:14;21.50;69.00
36384;DHT22;22418;51.210;6.976;2023-06-04T14:08:45;21.40;68.60
36384;DHT22;22418;51.210;6.976;2023-06-04T14:11:15;21.50;67.60
36384;DHT22;22418;51.210;6.976;2023-06-04T14:13:46;21.50;68.60
36384;DHT22;22418;51.210;6.976;2023-06-04T14:16:16;21.50;67.30
36384;DHT22;22418;51.210;6.976;2023-06-04T14:18:47;21.50;68.20
36384;DHT22;22418;51.210;6.976;2023-06-04T14:21:17;21.50;68.00
36384;DHT22;22418;51.210;6.976;2023-06-04T14:23:48;21.50;67.40
36384;DHT22;22418;51.210;6.976;2023-06-04T14:26:20;21.60;69.10
36384;DHT22;22418;51.210;6.976;2023-06-04T14:28:51;21.50;69.20
36384;DHT22;22418;51.210;6.976;2023-06-04T14:31:21;21.50;67.90
36384;DHT22;22418;51.210;6.976;2023-06-04T14:33:52;21.50;69.50
36384;DHT22;22418;51.210;6.976;2023-06-04T14:36:22;21.50;66.80
36384;DHT22;22418;51.210;6.976;2023-06-04T14:38:53;21.60;68.00
36384;DHT22;22418;51.210;6.976;2023-06-04T14:41:23;21.60;68.40
36384;DHT22;22418;51.210;6.976;2023-06-04T14:43:54;21.50;66.90
36384;DHT22;22418;51.210;6.976;2023-06-04T14:46:26;21.50;68.60
36384;DHT22;22418;51.210;6.976;2023-06-04T14:48:56;21.50;67.90
36384;DHT22;22418;51.210;6.976;2023-06-04T14:51:27;21.50;68.50
36384;DHT22;22418;51.210;6.976;2023-06-04T14:53:57;21.60;68.80
36384;DHT22;22418;51.210;6.976;2023-06-04T14:56:28;21.50;69.20
36384;DHT22;22418;51.210;6.976;2023-06-04T14:59:01;21.60;68.90
36384;DHT22;22418;51.210;6.976;2023-06-04T15:01:31;21.60;70.20
36384;DHT22;22418;51.210;6.976;2023-06-04T15:04:02;21.60;71.10
36384;DHT22;22418;51.210;6.976;2023-06-04T15:06:33;21.70;69.00
36384;DHT22;22418;51.210;6.976;2023-06-04T15:09:04;21.70;68.30
36384;DHT22;22418;51.210;6.976;2023-06-04T15:11:34;21.70;69.60
36384;DHT22;22418;51.210;6.976;2023-06-04T15:14:05;21.60;68.80
36384;DHT22;22418;51.210;6.976;2023-06-04T15:16:35;21.60;68.20
36384;DHT22;22418;51.210;6.976;2023-06-04T15:19:06;21.50;68.30
36384;DHT22;22418;51.210;6.976;2023-06-04T15:21:36;21.60;68.10
36384;DHT22;22418;51.210;6.976;2023-06-04T15:24:07;21.60;68.50
36384;DHT22;22418;51.210;6.976;2023-06-04T15:26:39;21.70;68.30
36384;DHT22;22418;51.210;6.976;2023-06-04T15:29:10;21.60;67.10
36384;DHT22;22418;51.210;6.976;2023-06-04T15:31:41;21.60;68.90
36384;DHT22;22418;51.210;6.976;2023-06-04T15:34:14;21.60;68.50
36384;DHT22;22418;51.210;6.976;2023-06-04T15:36:44;21.60;68.50
36384;DHT22;22418;51.210;6.976;2023-06-04T15:39:17;21.60;67.40
36384;DHT22;22418;51.210;6.976;2023-06-04T15:41:47;21.60;67.90
36384;DHT22;22418;51.210;6.976;2023-06-04T15:44:18;21.50;68.40
36384;DHT22;22418;51.210;6.976;2023-06-04T15:46:49;21.50;65.40
36384;DHT22;22418;51.210;6.976;2023-06-04T15:49:19;21.50;65.80
36384;DHT22;22418;51.210;6.976;2023-06-04T15:51:50;21.50;64.20
36384;DHT22;22418;51.210;6.976;2023-06-04T15:54:22;21.50;65.90
36384;DHT22;22418;51.210;6.976;2023-06-04T15:56:52;21.50;65.10
36384;DHT22;22418;51.210;6.976;2023-06-04T15:59:23;21.50;65.60
36384;DHT22;22418;51.210;6.976;2023-06-04T16:01:53;21.60;65.90
36384;DHT22;22418;51.210;6.976;2023-06-04T16:04:24;21.60;66.50
36384;DHT22;22418;51.210;6.976;2023-06-04T16:06:54;21.50;64.10
36384;DHT22;22418;51.210;6.976;2023-06-04T16:09:25;21.50;63.90